sensor_id;sensor_type;location;lat;lon;timestamp;pressure;altitude;pressure_sealevel;temperature;humidity
48874;BME280;35220;46.204;5.220;2022-07-09T00:00:02;99471.00;;;19.24;45.84
48874;BME280;35220;46.204;5.220;2022-07-09T00:05:03;99468.72;;;19.36;45.31
48874;BME280;35220;46.204;5.220;2022-07-09T00:10:04;99479.22;;;19.41;45.19
48874;BME280;35220;46.204;5.220;2022-07-09T00:15:05;99482.09;;;19.45;45.24
48874;BME280;35220;46.204;5.220;2022-07-09T00:20:06;99476.16;;;19.34;45.62
48874;BME280;35220;46.204;5.220;2022-07-09T00:25:07;99485.69;;;19.11;46.15
48874;BME280;35220;46.204;5.220;2022-07-09T00:30:07;99483.91;;;19.06;46.00
48874;BME280;35220;46.204;5.220;2022-07-09T00:35:08;99477.06;;;19.05;45.90
48874;BME280;35220;46.204;5.220;2022-07-09T00:40:09;99485.81;;;19.00;45.96
48874;BME280;35220;46.204;5.220;2022-07-09T00:45:10;99474.81;;;18.93;46.05
48874;BME280;35220;46.204;5.220;2022-07-09T00:50:10;99478.03;;;18.90;46.13
48874;BME280;35220;46.204;5.220;2022-07-09T00:55:12;99467.97;;;18.92;46.10
48874;BME280;35220;46.204;5.220;2022-07-09T01:00:13;99477.44;;;18.93;46.25
48874;BME280;35220;46.204;5.220;2022-07-09T01:05:14;99465.56;;;18.96;46.16
48874;BME280;35220;46.204;5.220;2022-07-09T01:10:14;99465.56;;;18.96;46.66
48874;BME280;35220;46.204;5.220;2022-07-09T01:15:14;99467.69;;;18.94;46.32
48874;BME280;35220;46.204;5.220;2022-07-09T01:20:27;99468.09;;;18.82;46.68
48874;BME280;35220;46.204;5.220;2022-07-09T01:25:36;99467.22;;;18.62;47.54
48874;BME280;35220;46.204;5.220;2022-07-09T01:30:39;99459.44;;;18.47;47.62
48874;BME280;35220;46.204;5.220;2022-07-09T01:35:42;99460.56;;;18.41;47.58
48874;BME280;35220;46.204;5.220;2022-07-09T01:40:43;99453.03;;;18.29;47.69
48874;BME280;35220;46.204;5.220;2022-07-09T01:45:43;99451.56;;;18.18;48.24
48874;BME280;35220;46.204;5.220;2022-07-09T01:50:43;99456.13;;;18.07;48.29
48874;BME280;35220;46.204;5.220;2022-07-09T01:55:44;99451.63;;;18.08;48.33
48874;BME280;35220;46.204;5.220;2022-07-09T02:00:44;99453.56;;;17.97;48.61
48874;BME280;35220;46.204;5.220;2022-07-09T02:05:45;99452.31;;;17.89;49.10
48874;BME280;35220;46.204;5.220;2022-07-09T02:10:45;99451.00;;;17.81;49.23
48874;BME280;35220;46.204;5.220;2022-07-09T02:15:46;99450.59;;;17.64;49.93
48874;BME280;35220;46.204;5.220;2022-07-09T02:20:46;99462.56;;;17.51;50.19
48874;BME280;35220;46.204;5.220;2022-07-09T02:25:46;99459.47;;;17.39;50.48
48874;BME280;35220;46.204;5.220;2022-07-09T02:30:47;99460.59;;;17.27;50.46
48874;BME280;35220;46.204;5.220;2022-07-09T02:35:47;99462.47;;;17.17;50.65
48874;BME280;35220;46.204;5.220;2022-07-09T02:40:48;99458.59;;;17.04;51.05
48874;BME280;35220;46.204;5.220;2022-07-09T02:45:48;99459.16;;;16.96;51.28
48874;BME280;35220;46.204;5.220;2022-07-09T02:50:52;99456.81;;;16.84;51.86
48874;BME280;35220;46.204;5.220;2022-07-09T02:55:52;99458.66;;;16.73;52.45
48874;BME280;35220;46.204;5.220;2022-07-09T03:00:53;99463.94;;;16.63;52.31
48874;BME280;35220;46.204;5.220;2022-07-09T03:05:53;99476.31;;;16.57;53.02
48874;BME280;35220;46.204;5.220;2022-07-09T03:10:54;99475.81;;;16.50;52.49
48874;BME280;35220;46.204;5.220;2022-07-09T03:15:54;99480.81;;;16.46;52.32
48874;BME280;35220;46.204;5.220;2022-07-09T03:20:54;99478.69;;;16.48;52.12
48874;BME280;35220;46.204;5.220;2022-07-09T03:25:55;99488.97;;;16.50;52.10
48874;BME280;35220;46.204;5.220;2022-07-09T03:30:56;99488.69;;;16.41;52.68
48874;BME280;35220;46.204;5.220;2022-07-09T03:35:57;99492.41;;;16.35;52.69
48874;BME280;35220;46.204;5.220;2022-07-09T03:40:57;99492.94;;;16.32;52.72
48874;BME280;35220;46.204;5.220;2022-07-09T03:45:57;99487.66;;;16.27;53.10
48874;BME280;35220;46.204;5.220;2022-07-09T03:50:58;99491.38;;;16.26;53.00
48874;BME280;35220;46.204;5.220;2022-07-09T03:55:59;99498.19;;;16.27;53.04
48874;BME280;35220;46.204;5.220;2022-07-09T04:00:59;99492.41;;;16.25;52.98
48874;BME280;35220;46.204;5.220;2022-07-09T04:06:00;99502.94;;;16.25;53.19
48874;BME280;35220;46.204;5.220;2022-07-09T04:11:01;99508.44;;;16.23;53.33
48874;BME280;35220;46.204;5.220;2022-07-09T04:16:01;99497.94;;;16.23;53.62
48874;BME280;35220;46.204;5.220;2022-07-09T04:21:02;99508.97;;;16.25;53.47
48874;BME280;35220;46.204;5.220;2022-07-09T04:26:03;99508.69;;;16.22;53.69
48874;BME280;35220;46.204;5.220;2022-07-09T04:31:04;99514.25;;;16.15;54.23
48874;BME280;35220;46.204;5.220;2022-07-09T04:36:04;99514.75;;;16.17;53.71
48874;BME280;35220;46.204;5.220;2022-07-09T04:41:05;99519.22;;;16.22;53.95
48874;BME280;35220;46.204;5.220;2022-07-09T04:46:05;99522.91;;;16.15;54.49
48874;BME280;35220;46.204;5.220;2022-07-09T04:51:06;99523.94;;;16.14;54.02
48874;BME280;35220;46.204;5.220;2022-07-09T04:56:06;99527.38;;;16.15;54.23
48874;BME280;35220;46.204;5.220;2022-07-09T05:01:07;99526.31;;;16.16;54.55
48874;BME280;35220;46.204;5.220;2022-07-09T05:06:08;99528.19;;;16.21;54.19
48874;BME280;35220;46.204;5.220;2022-07-09T05:11:09;99528.69;;;16.18;54.78
48874;BME280;35220;46.204;5.220;2022-07-09T05:16:10;99525.28;;;16.17;54.86
48874;BME280;35220;46.204;5.220;2022-07-09T05:21:10;99515.53;;;16.18;54.75
48874;BME280;35220;46.204;5.220;2022-07-09T05:26:11;99521.59;;;16.23;54.98
48874;BME280;35220;46.204;5.220;2022-07-09T05:31:12;99533.94;;;16.12;56.03
48874;BME280;35220;46.204;5.220;2022-07-09T05:36:12;99530.03;;;16.15;56.05
48874;BME280;35220;46.204;5.220;2022-07-09T05:41:13;99529.22;;;16.25;55.26
48874;BME280;35220;46.204;5.220;2022-07-09T05:46:15;99530.53;;;16.32;56.54
48874;BME280;35220;46.204;5.220;2022-07-09T05:51:16;99524.75;;;16.41;55.66
48874;BME280;35220;46.204;5.220;2022-07-09T05:56:16;99532.13;;;16.44;56.12
48874;BME280;35220;46.204;5.220;2022-07-09T06:01:17;99532.38;;;16.52;55.78
48874;BME280;35220;46.204;5.220;2022-07-09T06:06:18;99529.19;;;16.61;55.45
48874;BME280;35220;46.204;5.220;2022-07-09T06:11:18;99533.66;;;16.76;55.33
48874;BME280;35220;46.204;5.220;2022-07-09T06:16:19;99528.13;;;16.87;55.02
48874;BME280;35220;46.204;5.220;2022-07-09T06:21:19;99538.34;;;17.09;54.69
48874;BME280;35220;46.204;5.220;2022-07-09T06:26:19;99538.25;;;17.30;54.60
48874;BME280;35220;46.204;5.220;2022-07-09T06:31:20;99541.59;;;17.46;54.31
48874;BME280;35220;46.204;5.220;2022-07-09T06:36:20;99537.31;;;17.60;54.48
48874;BME280;35220;46.204;5.220;2022-07-09T06:41:21;99535.88;;;17.89;53.79
48874;BME280;35220;46.204;5.220;2022-07-09T06:46:21;99536.03;;;18.08;53.68
48874;BME280;35220;46.204;5.220;2022-07-09T06:51:21;99534.91;;;18.14;53.47
48874;BME280;35220;46.204;5.220;2022-07-09T06:56:22;99532.16;;;18.29;52.90
48874;BME280;35220;46.204;5.220;2022-07-09T07:01:23;99543.25;;;18.26;53.04
48874;BME280;35220;46.204;5.220;2022-07-09T07:06:23;99548.97;;;18.38;52.68
48874;BME280;35220;46.204;5.220;2022-07-09T07:11:23;99541.66;;;18.30;52.54
48874;BME280;35220;46.204;5.220;2022-07-09T07:16:24;99538.44;;;18.33;52.66
48874;BME280;35220;46.204;5.220;2022-07-09T07:21:24;99537.63;;;18.38;52.65
48874;BME280;35220;46.204;5.220;2022-07-09T07:26:25;99546.09;;;18.35;52.61
48874;BME280;35220;46.204;5.220;2022-07-09T07:31:25;99533.47;;;18.32;52.92
48874;BME280;35220;46.204;5.220;2022-07-09T07:36:26;99537.19;;;18.26;53.16
48874;BME280;35220;46.204;5.220;2022-07-09T07:41:27;99534.56;;;18.26;52.94
48874;BME280;35220;46.204;5.220;2022-07-09T07:46:27;99537.91;;;18.36;52.75
48874;BME280;35220;46.204;5.220;2022-07-09T07:51:27;99535.13;;;18.52;52.50
48874;BME280;35220;46.204;5.220;2022-07-09T07:56:28;99532.13;;;18.64;52.45
48874;BME280;35220;46.204;5.220;2022-07-09T08:01:28;99526.00;;;18.68;52.41
48874;BME280;35220;46.204;5.220;2022-07-09T08:06:29;99525.63;;;18.80;52.21
48874;BME280;35220;46.204;5.220;2022-07-09T08:11:30;99519.41;;;18.95;51.86
48874;BME280;35220;46.204;5.220;2022-07-09T08:16:30;99522.28;;;18.98;51.93
48874;BME280;35220;46.204;5.220;2022-07-09T08:21:30;99519.75;;;19.12;51.69
48874;BME280;35220;46.204;5.220;2022-07-09T08:26:31;99520.84;;;19.30;51.57
48874;BME280;35220;46.204;5.220;2022-07-09T08:31:31;99520.59;;;19.51;51.21
48874;BME280;35220;46.204;5.220;2022-07-09T08:36:32;99513.03;;;19.63;50.89
48874;BME280;35220;46.204;5.220;2022-07-09T08:41:32;99517.13;;;19.74;50.77
48874;BME280;35220;46.204;5.220;2022-07-09T08:46:33;99513.03;;;19.82;50.91
48874;BME280;35220;46.204;5.220;2022-07-09T08:51:35;99506.75;;;19.97;50.44
48874;BME280;35220;46.204;5.220;2022-07-09T08:56:36;99511.00;;;20.12;50.31
48874;BME280;35220;46.204;5.220;2022-07-09T09:01:37;99502.91;;;20.22;50.42
48874;BME280;35220;46.204;5.220;2022-07-09T09:06:39;99512.44;;;20.37;50.03
48874;BME280;35220;46.204;5.220;2022-07-09T09:11:42;99507.75;;;20.48;49.47
48874;BME280;35220;46.204;5.220;2022-07-09T09:16:43;99500.22;;;20.55;49.59
48874;BME280;35220;46.204;5.220;2022-07-09T09:21:43;99495.84;;;20.64;49.52
48874;BME280;35220;46.204;5.220;2022-07-09T09:26:43;99491.53;;;20.82;49.47
48874;BME280;35220;46.204;5.220;2022-07-09T09:31:45;99490.94;;;20.99;49.28
48874;BME280;35220;46.204;5.220;2022-07-09T09:36:48;99491.69;;;21.14;49.35
48874;BME280;35220;46.204;5.220;2022-07-09T09:41:52;99488.94;;;21.33;48.85
48874;BME280;35220;46.204;5.220;2022-07-09T09:46:54;99492.72;;;21.40;49.11
48874;BME280;35220;46.204;5.220;2022-07-09T09:52:03;99491.38;;;21.43;48.78
48874;BME280;35220;46.204;5.220;2022-07-09T09:57:08;99491.84;;;21.59;48.68
48874;BME280;35220;46.204;5.220;2022-07-09T10:02:10;99489.97;;;21.59;48.83
48874;BME280;35220;46.204;5.220;2022-07-09T10:07:13;99492.09;;;21.71;48.43
48874;BME280;35220;46.204;5.220;2022-07-09T10:12:13;99483.59;;;21.83;47.57
48874;BME280;35220;46.204;5.220;2022-07-09T10:17:15;99485.72;;;21.95;47.04
48874;BME280;35220;46.204;5.220;2022-07-09T10:22:16;99487.88;;;21.93;46.29
48874;BME280;35220;46.204;5.220;2022-07-09T10:27:16;99487.00;;;22.06;46.78
48874;BME280;35220;46.204;5.220;2022-07-09T10:32:26;99486.16;;;22.19;46.21
48874;BME280;35220;46.204;5.220;2022-07-09T10:37:42;99475.81;;;22.32;46.39
48874;BME280;35220;46.204;5.220;2022-07-09T10:42:44;99474.88;;;22.36;46.45
48874;BME280;35220;46.204;5.220;2022-07-09T10:47:50;99476.06;;;22.53;47.08
48874;BME280;35220;46.204;5.220;2022-07-09T10:52:52;99468.47;;;22.69;46.80
48874;BME280;35220;46.204;5.220;2022-07-09T10:57:53;99458.00;;;22.72;47.06
48874;BME280;35220;46.204;5.220;2022-07-09T11:02:59;99457.72;;;22.91;47.21
48874;BME280;35220;46.204;5.220;2022-07-09T11:08:02;99442.16;;;23.16;46.56
48874;BME280;35220;46.204;5.220;2022-07-09T11:13:04;99444.97;;;23.28;45.22
48874;BME280;35220;46.204;5.220;2022-07-09T11:18:11;99442.31;;;23.37;45.56
48874;BME280;35220;46.204;5.220;2022-07-09T11:23:16;99445.13;;;23.58;45.04
48874;BME280;35220;46.204;5.220;2022-07-09T11:28:24;99439.34;;;23.65;45.14
48874;BME280;35220;46.204;5.220;2022-07-09T11:33:25;99438.69;;;23.94;44.80
48874;BME280;35220;46.204;5.220;2022-07-09T11:38:26;99447.84;;;24.14;44.29
48874;BME280;35220;46.204;5.220;2022-07-09T11:43:26;99445.97;;;24.23;44.13
48874;BME280;35220;46.204;5.220;2022-07-09T11:48:27;99440.22;;;24.42;44.15
48874;BME280;35220;46.204;5.220;2022-07-09T11:53:27;99431.88;;;24.61;43.21
48874;BME280;35220;46.204;5.220;2022-07-09T11:58:28;99422.09;;;24.95;42.88
48874;BME280;35220;46.204;5.220;2022-07-09T12:03:29;99410.94;;;25.23;42.07
48874;BME280;35220;46.204;5.220;2022-07-09T12:08:32;99411.50;;;25.50;41.94
48874;BME280;35220;46.204;5.220;2022-07-09T12:13:33;99401.84;;;25.57;41.80
48874;BME280;35220;46.204;5.220;2022-07-09T12:18:33;99406.38;;;25.78;41.83
48874;BME280;35220;46.204;5.220;2022-07-09T12:23:33;99388.41;;;25.99;42.00
48874;BME280;35220;46.204;5.220;2022-07-09T12:28:34;99381.94;;;26.13;41.24
48874;BME280;35220;46.204;5.220;2022-07-09T12:33:34;99380.97;;;26.30;40.62
48874;BME280;35220;46.204;5.220;2022-07-09T12:38:35;99383.41;;;26.23;39.88
48874;BME280;35220;46.204;5.220;2022-07-09T12:43:35;99383.53;;;26.14;39.63
48874;BME280;35220;46.204;5.220;2022-07-09T12:48:35;99381.19;;;26.25;39.34
48874;BME280;35220;46.204;5.220;2022-07-09T12:53:36;99367.59;;;26.30;38.78
48874;BME280;35220;46.204;5.220;2022-07-09T12:58:36;99363.69;;;26.64;38.51
48874;BME280;35220;46.204;5.220;2022-07-09T13:03:37;99360.56;;;26.74;37.90
48874;BME280;35220;46.204;5.220;2022-07-09T13:08:37;99370.47;;;26.74;38.24
48874;BME280;35220;46.204;5.220;2022-07-09T13:13:37;99349.25;;;26.93;38.16
48874;BME280;35220;46.204;5.220;2022-07-09T13:18:38;99351.69;;;26.99;37.54
48874;BME280;35220;46.204;5.220;2022-07-09T13:23:38;99350.72;;;26.79;37.56
48874;BME280;35220;46.204;5.220;2022-07-09T13:28:40;99359.28;;;26.84;37.31
48874;BME280;35220;46.204;5.220;2022-07-09T13:33:40;99365.25;;;27.06;37.00
48874;BME280;35220;46.204;5.220;2022-07-09T13:38:41;99355.22;;;27.03;35.62
48874;BME280;35220;46.204;5.220;2022-07-09T13:43:42;99368.53;;;26.87;35.40
48874;BME280;35220;46.204;5.220;2022-07-09T13:48:42;99370.34;;;26.83;35.41
48874;BME280;35220;46.204;5.220;2022-07-09T13:53:42;99364.47;;;26.65;36.03
48874;BME280;35220;46.204;5.220;2022-07-09T13:58:43;99360.34;;;26.67;36.19
48874;BME280;35220;46.204;5.220;2022-07-09T14:03:43;99358.03;;;26.94;36.09
48874;BME280;35220;46.204;5.220;2022-07-09T14:08:44;99355.47;;;27.26;36.09
48874;BME280;35220;46.204;5.220;2022-07-09T14:13:44;99357.09;;;27.75;35.15
48874;BME280;35220;46.204;5.220;2022-07-09T14:18:45;99345.72;;;27.78;34.88
48874;BME280;35220;46.204;5.220;2022-07-09T14:23:45;99356.47;;;27.49;34.95
48874;BME280;35220;46.204;5.220;2022-07-09T14:28:48;99359.88;;;27.18;35.21
48874;BME280;35220;46.204;5.220;2022-07-09T14:33:48;99363.13;;;27.11;35.69
48874;BME280;35220;46.204;5.220;2022-07-09T14:38:49;99363.66;;;26.77;35.90
48874;BME280;35220;46.204;5.220;2022-07-09T14:43:49;99360.34;;;26.67;36.29
48874;BME280;35220;46.204;5.220;2022-07-09T14:48:49;99356.56;;;26.56;36.08
48874;BME280;35220;46.204;5.220;2022-07-09T14:53:50;99356.09;;;26.66;36.20
48874;BME280;35220;46.204;5.220;2022-07-09T14:58:50;99355.97;;;26.75;35.63
48874;BME280;35220;46.204;5.220;2022-07-09T15:03:50;99346.69;;;26.97;35.52
48874;BME280;35220;46.204;5.220;2022-07-09T15:08:51;99337.75;;;27.21;35.36
48874;BME280;35220;46.204;5.220;2022-07-09T15:13:51;99340.25;;;27.42;34.98
48874;BME280;35220;46.204;5.220;2022-07-09T15:18:52;99330.41;;;27.46;34.63
48874;BME280;35220;46.204;5.220;2022-07-09T15:23:52;99332.41;;;27.65;34.45
48874;BME280;35220;46.204;5.220;2022-07-09T15:28:53;99334.66;;;27.63;34.05
48874;BME280;35220;46.204;5.220;2022-07-09T15:33:53;99322.81;;;28.48;33.98
48874;BME280;35220;46.204;5.220;2022-07-09T15:38:54;99313.03;;;29.56;32.03
48874;BME280;35220;46.204;5.220;2022-07-09T15:43:54;99322.91;;;29.29;31.98
48874;BME280;35220;46.204;5.220;2022-07-09T15:48:54;99309.44;;;29.26;32.55
48874;BME280;35220;46.204;5.220;2022-07-09T15:53:55;99328.63;;;29.74;31.33
48874;BME280;35220;46.204;5.220;2022-07-09T15:58:55;99314.22;;;29.59;31.37
48874;BME280;35220;46.204;5.220;2022-07-09T16:03:56;99315.81;;;29.17;32.28
48874;BME280;35220;46.204;5.220;2022-07-09T16:08:56;99296.63;;;29.85;31.15
48874;BME280;35220;46.204;5.220;2022-07-09T16:13:57;99291.16;;;31.40;30.01
48874;BME280;35220;46.204;5.220;2022-07-09T16:18:57;99281.34;;;31.62;29.65
48874;BME280;35220;46.204;5.220;2022-07-09T16:23:57;99290.84;;;32.00;28.84
48874;BME280;35220;46.204;5.220;2022-07-09T16:28:58;99286.28;;;33.07;27.12
48874;BME280;35220;46.204;5.220;2022-07-09T16:33:58;99269.03;;;34.72;26.21
48874;BME280;35220;46.204;5.220;2022-07-09T16:38:59;99252.00;;;35.31;24.83
48874;BME280;35220;46.204;5.220;2022-07-09T16:43:59;99250.56;;;36.64;23.88
48874;BME280;35220;46.204;5.220;2022-07-09T16:48:59;99241.88;;;36.45;23.70
48874;BME280;35220;46.204;5.220;2022-07-09T16:54:00;99238.91;;;37.65;22.36
48874;BME280;35220;46.204;5.220;2022-07-09T16:59:00;99231.84;;;37.67;22.91
48874;BME280;35220;46.204;5.220;2022-07-09T17:04:01;99232.78;;;37.81;22.55
48874;BME280;35220;46.204;5.220;2022-07-09T17:09:01;99246.28;;;37.84;22.50
48874;BME280;35220;46.204;5.220;2022-07-09T17:14:02;99229.38;;;37.53;22.14
48874;BME280;35220;46.204;5.220;2022-07-09T17:19:03;99235.97;;;37.52;22.43
48874;BME280;35220;46.204;5.220;2022-07-09T17:24:04;99231.34;;;37.93;22.02
48874;BME280;35220;46.204;5.220;2022-07-09T17:29:04;99226.28;;;37.31;22.29
48874;BME280;35220;46.204;5.220;2022-07-09T17:34:04;99236.00;;;37.05;22.33
48874;BME280;35220;46.204;5.220;2022-07-09T17:39:05;99228.84;;;36.91;22.57
48874;BME280;35220;46.204;5.220;2022-07-09T17:44:05;99233.41;;;36.70;22.96
48874;BME280;35220;46.204;5.220;2022-07-09T17:49:06;99229.97;;;36.39;22.96
48874;BME280;35220;46.204;5.220;2022-07-09T17:54:06;99230.81;;;36.32;23.08
48874;BME280;35220;46.204;5.220;2022-07-09T17:59:06;99234.72;;;35.59;23.26
48874;BME280;35220;46.204;5.220;2022-07-09T18:04:07;99220.75;;;35.98;22.91
48874;BME280;35220;46.204;5.220;2022-07-09T18:09:07;99223.31;;;36.09;22.52
48874;BME280;35220;46.204;5.220;2022-07-09T18:14:08;99213.25;;;36.10;22.24
48874;BME280;35220;46.204;5.220;2022-07-09T18:19:08;99213.78;;;35.97;22.24
48874;BME280;35220;46.204;5.220;2022-07-09T18:24:09;99207.13;;;35.71;22.12
48874;BME280;35220;46.204;5.220;2022-07-09T18:29:09;99211.03;;;34.69;22.76
48874;BME280;35220;46.204;5.220;2022-07-09T18:34:09;99210.53;;;34.07;22.99
48874;BME280;35220;46.204;5.220;2022-07-09T18:39:10;99218.78;;;33.50;23.66
48874;BME280;35220;46.204;5.220;2022-07-09T18:44:11;99225.28;;;32.63;24.30
48874;BME280;35220;46.204;5.220;2022-07-09T18:49:15;99217.78;;;32.13;25.10
48874;BME280;35220;46.204;5.220;2022-07-09T18:54:15;99212.84;;;31.56;25.70
48874;BME280;35220;46.204;5.220;2022-07-09T18:59:16;99218.13;;;31.45;25.92
48874;BME280;35220;46.204;5.220;2022-07-09T19:04:17;99221.28;;;31.06;26.53
48874;BME280;35220;46.204;5.220;2022-07-09T19:09:17;99223.13;;;30.64;27.00
48874;BME280;35220;46.204;5.220;2022-07-09T19:14:18;99211.44;;;30.16;27.58
48874;BME280;35220;46.204;5.220;2022-07-09T19:19:18;99218.25;;;29.56;28.70
48874;BME280;35220;46.204;5.220;2022-07-09T19:24:18;99222.41;;;29.04;29.00
48874;BME280;35220;46.204;5.220;2022-07-09T19:29:19;99220.97;;;28.48;30.14
48874;BME280;35220;46.204;5.220;2022-07-09T19:34:19;99224.53;;;27.97;30.58
48874;BME280;35220;46.204;5.220;2022-07-09T19:39:19;99222.84;;;27.57;31.39
48874;BME280;35220;46.204;5.220;2022-07-09T19:44:20;99219.28;;;27.21;31.71
48874;BME280;35220;46.204;5.220;2022-07-09T19:49:21;99224.88;;;27.00;31.98
48874;BME280;35220;46.204;5.220;2022-07-09T19:54:21;99222.94;;;26.84;32.35
48874;BME280;35220;46.204;5.220;2022-07-09T19:59:22;99231.78;;;26.44;33.43
48874;BME280;35220;46.204;5.220;2022-07-09T20:04:22;99238.63;;;26.29;33.64
48874;BME280;35220;46.204;5.220;2022-07-09T20:09:22;99238.19;;;26.03;34.33
48874;BME280;35220;46.204;5.220;2022-07-09T20:14:23;99238.66;;;25.80;35.18
48874;BME280;35220;46.204;5.220;2022-07-09T20:19:23;99247.00;;;25.66;35.53
48874;BME280;35220;46.204;5.220;2022-07-09T20:24:24;99240.53;;;25.55;35.82
48874;BME280;35220;46.204;5.220;2022-07-09T20:29:24;99251.66;;;25.45;35.98
48874;BME280;35220;46.204;5.220;2022-07-09T20:34:24;99249.53;;;25.38;36.03
48874;BME280;35220;46.204;5.220;2022-07-09T20:39:25;99254.56;;;25.18;36.87
48874;BME280;35220;46.204;5.220;2022-07-09T20:44:25;99256.09;;;25.07;37.00
48874;BME280;35220;46.204;5.220;2022-07-09T20:49:26;99257.47;;;24.92;37.62
48874;BME280;35220;46.204;5.220;2022-07-09T20:54:26;99257.56;;;24.83;37.69
48874;BME280;35220;46.204;5.220;2022-07-09T20:59:26;99243.66;;;24.78;37.83
48874;BME280;35220;46.204;5.220;2022-07-09T21:04:27;99245.75;;;24.72;37.77
48874;BME280;35220;46.204;5.220;2022-07-09T21:09:28;99245.38;;;24.61;38.45
48874;BME280;35220;46.204;5.220;2022-07-09T21:14:28;99246.03;;;24.58;38.35
48874;BME280;35220;46.204;5.220;2022-07-09T21:19:28;99264.69;;;24.49;38.91
48874;BME280;35220;46.204;5.220;2022-07-09T21:24:29;99252.25;;;24.41;39.08
48874;BME280;35220;46.204;5.220;2022-07-09T21:29:29;99248.59;;;24.25;39.63
48874;BME280;35220;46.204;5.220;2022-07-09T21:34:30;99261.34;;;24.10;40.26
48874;BME280;35220;46.204;5.220;2022-07-09T21:39:30;99259.44;;;23.90;41.20
48874;BME280;35220;46.204;5.220;2022-07-09T21:44:31;99246.19;;;23.72;41.40
48874;BME280;35220;46.204;5.220;2022-07-09T21:49:31;99250.81;;;23.54;42.38
48874;BME280;35220;46.204;5.220;2022-07-09T21:54:32;99255.13;;;23.29;44.09
48874;BME280;35220;46.204;5.220;2022-07-09T21:59:33;99247.34;;;23.15;43.41
48874;BME280;35220;46.204;5.220;2022-07-09T22:04:33;99248.91;;;22.99;43.92
48874;BME280;35220;46.204;5.220;2022-07-09T22:09:34;99244.22;;;22.78;45.04
48874;BME280;35220;46.204;5.220;2022-07-09T22:14:34;99246.41;;;22.68;45.00
48874;BME280;35220;46.204;5.220;2022-07-09T22:19:35;99239.06;;;22.47;46.19
48874;BME280;35220;46.204;5.220;2022-07-09T22:24:35;99237.59;;;22.24;47.00
48874;BME280;35220;46.204;5.220;2022-07-09T22:29:36;99231.78;;;22.04;47.92
48874;BME280;35220;46.204;5.220;2022-07-09T22:34:36;99233.03;;;21.89;47.53
48874;BME280;35220;46.204;5.220;2022-07-09T22:39:36;99241.84;;;21.76;48.34
48874;BME280;35220;46.204;5.220;2022-07-09T22:44:37;99241.97;;;21.62;48.55
48874;BME280;35220;46.204;5.220;2022-07-09T22:49:37;99237.72;;;21.52;49.12
48874;BME280;35220;46.204;5.220;2022-07-09T22:54:38;99246.19;;;21.40;49.50
48874;BME280;35220;46.204;5.220;2022-07-09T22:59:38;99241.19;;;21.30;49.67
48874;BME280;35220;46.204;5.220;2022-07-09T23:04:39;99241.44;;;21.20;49.72
48874;BME280;35220;46.204;5.220;2022-07-09T23:09:40;99236.72;;;21.17;49.82
48874;BME280;35220;46.204;5.220;2022-07-09T23:14:40;99236.78;;;21.03;50.79
48874;BME280;35220;46.204;5.220;2022-07-09T23:19:41;99227.72;;;20.95;51.28
48874;BME280;35220;46.204;5.220;2022-07-09T23:24:41;99228.91;;;20.89;50.38
48874;BME280;35220;46.204;5.220;2022-07-09T23:29:41;99229.16;;;20.79;51.58
48874;BME280;35220;46.204;5.220;2022-07-09T23:34:42;99225.19;;;20.67;51.77
48874;BME280;35220;46.204;5.220;2022-07-09T23:39:42;99220.06;;;20.57;51.91
48874;BME280;35220;46.204;5.220;2022-07-09T23:44:42;99223.94;;;20.51;51.93
48874;BME280;35220;46.204;5.220;2022-07-09T23:49:43;99214.03;;;20.43;52.37
48874;BME280;35220;46.204;5.220;2022-07-09T23:54:43;99209.00;;;20.32;53.21
48874;BME280;35220;46.204;5.220;2022-07-09T23:59:43;99221.84;;;20.25;53.43
